createdAt,value
2023-04-18T00:00:25.714Z,102284.59
2023-04-18T00:03:16.037Z,102281.06
2023-04-18T00:06:03.618Z,102281.91
2023-04-18T00:08:51.557Z,102282.78
2023-04-18T00:11:38.239Z,102286.31
2023-04-18T00:14:24.985Z,102281.91
2023-04-18T00:17:13.512Z,102280.16
2023-04-18T00:20:02.432Z,102276.63
2023-04-18T00:22:49.081Z,102275.72
2023-04-18T00:25:37.138Z,102281.03
2023-04-18T00:28:23.682Z,102276.63
2023-04-18T00:31:10.503Z,102274.84
2023-04-18T00:33:57.069Z,102273.94
2023-04-18T00:36:43.808Z,102278.38
2023-04-18T00:39:30.715Z,102277.50
2023-04-18T00:42:18.863Z,102270.47
2023-04-18T00:45:06.462Z,102277.50
2023-04-18T00:47:53.159Z,102283.69
2023-04-18T00:50:41.277Z,102281.03
2023-04-18T00:53:29.496Z,102275.75
2023-04-18T00:56:16.019Z,102235.28
2023-04-18T00:59:04.504Z,102278.38
2023-04-18T01:01:51.369Z,102275.72
2023-04-18T01:04:38.731Z,102278.38
2023-04-18T01:07:30.745Z,102279.25
2023-04-18T01:10:17.509Z,102284.56
2023-04-18T01:13:15.001Z,102277.50
2023-04-18T01:16:03.091Z,102277.50
2023-04-18T01:18:49.608Z,102283.66
2023-04-18T01:21:37.447Z,102280.16
2023-04-18T01:24:26.868Z,102277.50
2023-04-18T01:27:14.504Z,102265.19
2023-04-18T01:30:01.211Z,102287.19
2023-04-18T01:32:50.085Z,102286.31
2023-04-18T01:35:37.738Z,102282.81
2023-04-18T01:38:24.646Z,102277.50
2023-04-18T01:41:12.741Z,102278.44
2023-04-18T01:43:59.424Z,102276.66
2023-04-18T01:46:46.360Z,102274.88
2023-04-18T01:49:33.278Z,102274.00
2023-04-18T01:52:20.156Z,102273.94
2023-04-18T01:55:07.410Z,102279.22
2023-04-18T01:57:56.648Z,102275.69
2023-04-18T02:00:43.553Z,102279.19
2023-04-18T02:03:30.409Z,102276.53
2023-04-18T02:06:17.627Z,102275.72
2023-04-18T02:09:04.246Z,102280.91
2023-04-18T02:11:51.099Z,102275.63
2023-04-18T02:14:39.124Z,102270.34
2023-04-18T02:17:25.808Z,102275.63
2023-04-18T02:20:15.880Z,102261.53
2023-04-18T02:23:03.562Z,102272.06
2023-04-18T02:25:50.893Z,102270.28
2023-04-18T02:28:39.203Z,102268.50
2023-04-18T02:31:27.238Z,102279.91
2023-04-18T02:34:14.230Z,102278.22
2023-04-18T02:37:01.528Z,102273.78
2023-04-18T02:39:48.123Z,102273.78
2023-04-18T02:42:34.852Z,102273.81
2023-04-18T02:45:21.789Z,102273.84
2023-04-18T02:48:09.724Z,102279.06
2023-04-18T02:51:03.441Z,102286.13
2023-04-18T02:53:55.051Z,102278.16
2023-04-18T02:56:42.964Z,102287.88
2023-04-18T02:59:35.879Z,102288.66
2023-04-18T03:02:41.463Z,102289.41
2023-04-18T03:05:49.968Z,102290.22
2023-04-18T03:08:36.700Z,102288.41
2023-04-18T03:11:23.441Z,102284.91
2023-04-18T03:14:10.437Z,102285.84
2023-04-18T03:17:05.434Z,102285.00
2023-04-18T03:19:58.448Z,102286.81
2023-04-18T03:22:46.573Z,102287.66
2023-04-18T03:25:35.399Z,102290.28
2023-04-18T03:28:24.044Z,102285.06
2023-04-18T03:31:10.954Z,102287.69
2023-04-18T03:33:59.917Z,102292.13
2023-04-18T03:36:47.943Z,102291.28
2023-04-18T03:39:37.254Z,102299.13
2023-04-18T03:42:24.482Z,102299.16
2023-04-18T03:45:11.850Z,102304.44
2023-04-18T03:47:58.992Z,102307.97
2023-04-18T03:50:45.582Z,102308.88
2023-04-18T03:53:32.483Z,102309.78
2023-04-18T03:56:20.588Z,102296.63
2023-04-18T03:59:10.940Z,102301.97
2023-04-18T04:01:58.642Z,102297.59
2023-04-18T04:04:45.521Z,102304.72
2023-04-18T04:07:32.605Z,102296.81
2023-04-18T04:10:19.326Z,102302.06
2023-04-18T04:13:09.008Z,102301.16
2023-04-18T04:15:58.883Z,102300.31
2023-04-18T04:18:46.038Z,102299.34
2023-04-18T04:21:33.754Z,102307.25
2023-04-18T04:24:22.746Z,102306.38
2023-04-18T04:27:12.673Z,102312.53
2023-04-18T04:30:02.694Z,102307.25
2023-04-18T04:32:49.494Z,102318.78
2023-04-18T04:35:36.774Z,102316.16
2023-04-18T04:38:25.070Z,102310.91
2023-04-18T04:41:13.804Z,102311.84
2023-04-18T04:44:01.920Z,102303.97
2023-04-18T04:46:54.544Z,102306.56
2023-04-18T04:49:45.244Z,102307.44
2023-04-18T04:52:32.717Z,102313.63
2023-04-18T04:55:19.558Z,102305.53
2023-04-18T04:58:05.987Z,102315.16
2023-04-18T05:01:07.727Z,102316.84
2023-04-18T05:03:56.077Z,102316.03
2023-04-18T05:06:42.771Z,102319.34
2023-04-18T05:09:29.716Z,102324.81
2023-04-18T05:12:16.446Z,102320.69
2023-04-18T05:15:03.218Z,102327.22
2023-04-18T05:17:50.205Z,102329.75
2023-04-18T05:20:38.269Z,102333.84
2023-04-18T05:23:25.351Z,102335.50
2023-04-18T05:26:11.930Z,102337.22
2023-04-18T05:28:58.619Z,102334.75
2023-04-18T05:31:45.554Z,102327.94
2023-04-18T05:34:32.562Z,102322.28
2023-04-18T05:37:20.742Z,102325.63
2023-04-18T05:40:09.514Z,102330.28
2023-04-18T05:42:56.045Z,102326.84
2023-04-18T05:45:43.002Z,102334.25
2023-04-18T05:48:29.754Z,102336.41
2023-04-18T05:51:16.544Z,102334.00
2023-04-18T05:54:05.007Z,102331.22
2023-04-18T05:56:51.615Z,102337.31
2023-04-18T05:59:38.181Z,102332.22
2023-04-18T06:02:25.092Z,102329.63
2023-04-18T06:05:12.085Z,102330.75
2023-04-18T06:07:59.377Z,102334.34
2023-04-18T06:10:47.524Z,102335.09
2023-04-18T06:13:34.418Z,102270.03
2023-04-18T06:16:21.319Z,102332.59
2023-04-18T06:19:08.178Z,102343.97
2023-04-18T06:21:55.317Z,102339.56
2023-04-18T06:24:41.702Z,102341.41
2023-04-18T06:27:31.817Z,102348.34
2023-04-18T06:30:21.916Z,102346.66
2023-04-18T06:33:10.530Z,102343.84
2023-04-18T06:35:57.221Z,102333.72
2023-04-18T06:38:44.030Z,102337.06
2023-04-18T06:41:30.662Z,102343.16
2023-04-18T06:44:18.953Z,102342.53
2023-04-18T06:47:05.708Z,102344.44
2023-04-18T06:49:52.423Z,102348.56
2023-04-18T06:52:44.469Z,102357.63
2023-04-18T06:55:31.460Z,102351.72
2023-04-18T06:58:18.209Z,102349.78
2023-04-18T07:01:06.601Z,102353.75
2023-04-18T07:03:53.159Z,102351.09
2023-04-18T07:06:39.856Z,102358.84
2023-04-18T07:09:26.627Z,102352.34
2023-04-18T07:12:13.457Z,102359.28
2023-04-18T07:15:00.160Z,102347.84
2023-04-18T07:17:48.263Z,102354.09
2023-04-18T07:20:35.200Z,102351.66
2023-04-18T07:23:26.238Z,102347.84
2023-04-18T07:26:14.390Z,102354.78
2023-04-18T07:29:03.166Z,102351.09
2023-04-18T07:31:49.990Z,102356.63
2023-04-18T07:34:37.891Z,102353.69
2023-04-18T07:37:24.691Z,102354.38
2023-04-18T07:40:12.350Z,102339.19
2023-04-18T07:42:58.963Z,102355.09
2023-04-18T07:45:46.266Z,102351.75
2023-04-18T07:48:32.991Z,102357.13
2023-04-18T07:51:21.409Z,102360.88
2023-04-18T07:54:11.174Z,102366.31
2023-04-18T07:57:01.893Z,102364.81
2023-04-18T07:59:49.336Z,102364.94
2023-04-18T08:02:39.684Z,102368.19
2023-04-18T08:05:27.799Z,102366.63
2023-04-18T08:08:15.918Z,102368.97
2023-04-18T08:11:02.973Z,102362.13
2023-04-18T08:13:49.404Z,102370.78
2023-04-18T08:16:36.430Z,102381.47
2023-04-18T08:19:24.316Z,102375.19
2023-04-18T08:22:12.412Z,102379.13
2023-04-18T08:25:04.836Z,102384.97
2023-04-18T08:27:51.782Z,102384.78
2023-04-18T08:30:38.592Z,102384.19
2023-04-18T08:33:25.504Z,102376.63
2023-04-18T08:36:12.232Z,102377.59
2023-04-18T08:38:58.876Z,102379.13
2023-04-18T08:41:52.155Z,102376.97
2023-04-18T08:44:39.067Z,102359.31
2023-04-18T08:47:25.963Z,102383.91
2023-04-18T08:50:16.653Z,102383.66
2023-04-18T08:53:03.448Z,102387.84
2023-04-18T08:55:54.693Z,102375.31
2023-04-18T08:58:49.722Z,102378.44
2023-04-18T09:02:07.146Z,102382.09
2023-04-18T09:05:05.296Z,102375.47
2023-04-18T09:07:58.765Z,102382.78
2023-04-18T09:10:48.304Z,102377.34
2023-04-18T09:13:47.698Z,102371.72
2023-04-18T09:16:46.994Z,102374.09
2023-04-18T09:19:34.003Z,102380.50
2023-04-18T09:22:22.034Z,102375.34
2023-04-18T09:25:10.098Z,102368.78
2023-04-18T09:27:57.429Z,102370.81
2023-04-18T09:30:46.660Z,102370.34
2023-04-18T09:33:33.719Z,102375.16
2023-04-18T09:36:22.052Z,102373.63
2023-04-18T09:39:08.873Z,102370.69
2023-04-18T09:42:00.583Z,102368.25
2023-04-18T09:45:02.353Z,102374.94
2023-04-18T09:47:50.725Z,102372.69
2023-04-18T09:50:38.002Z,102362.25
2023-04-18T09:53:25.645Z,102370.19
2023-04-18T09:56:20.913Z,102361.19
2023-04-18T09:59:10.124Z,102366.28
2023-04-18T10:01:59.270Z,102365.63
2023-04-18T10:04:48.305Z,102297.03
2023-04-18T10:07:35.253Z,102368.00
2023-04-18T10:10:22.083Z,102365.91
2023-04-18T10:13:11.285Z,102345.66
2023-04-18T10:15:58.270Z,102363.03
2023-04-18T10:18:45.056Z,102356.56
2023-04-18T10:21:37.976Z,102363.38
2023-04-18T10:24:53.120Z,102360.06
2023-04-18T10:27:57.565Z,102359.56
2023-04-18T10:31:03.672Z,102358.84
2023-04-18T10:34:04.126Z,102354.28
2023-04-18T10:37:06.465Z,102362.44
2023-04-18T10:39:58.724Z,102340.31
2023-04-18T10:43:00.919Z,102350.72
2023-04-18T10:46:23.825Z,102349.53
2023-04-18T10:49:16.903Z,102346.03
2023-04-18T10:52:06.920Z,102343.47
2023-04-18T10:54:59.483Z,102345.16
2023-04-18T10:57:47.598Z,102341.00
2023-04-18T11:00:34.545Z,102341.56
2023-04-18T11:03:21.111Z,102340.38
2023-04-18T11:06:08.158Z,102337.28
2023-04-18T11:12:05.471Z,102338.38
2023-04-18T11:14:53.384Z,102330.41
2023-04-18T11:17:41.537Z,102338.03
2023-04-18T11:20:29.393Z,102341.66
2023-04-18T11:23:21.549Z,102332.25
2023-04-18T11:26:08.856Z,102331.84
2023-04-18T11:28:59.592Z,102330.97
2023-04-18T11:31:52.274Z,102327.25
2023-04-18T11:34:38.759Z,102331.63
2023-04-18T11:37:25.531Z,102324.22
2023-04-18T11:40:13.966Z,102322.63
2023-04-18T11:43:02.987Z,102326.84
2023-04-18T11:45:54.470Z,102332.31
2023-04-18T11:48:42.247Z,102321.06
2023-04-18T11:51:38.402Z,102320.94
2023-04-18T11:54:39.058Z,102322.03
2023-04-18T11:57:26.935Z,102325.81
2023-04-18T12:00:15.042Z,102314.25
2023-04-18T12:03:05.477Z,102312.41
2023-04-18T12:06:00.083Z,102318.66
2023-04-18T12:08:46.776Z,102318.75
2023-04-18T12:11:33.646Z,102314.44
2023-04-18T12:14:21.712Z,102315.00
2023-04-18T12:17:08.271Z,102312.53
2023-04-18T12:19:57.751Z,102312.28
2023-04-18T12:22:46.232Z,102312.31
2023-04-18T12:25:33.641Z,102315.47
2023-04-18T12:28:21.254Z,102304.63
2023-04-18T12:31:08.239Z,102312.44
2023-04-18T12:33:56.788Z,102314.63
2023-04-18T12:36:45.634Z,102313.13
2023-04-18T12:39:32.205Z,102313.00
2023-04-18T12:42:19.133Z,102308.47
2023-04-18T12:45:07.804Z,102314.28
2023-04-18T12:47:54.620Z,102309.94
2023-04-18T12:50:41.184Z,102304.00
2023-04-18T12:53:29.353Z,102309.66
2023-04-18T12:56:16.419Z,102296.19
2023-04-18T12:59:03.011Z,102297.75
2023-04-18T13:01:49.923Z,102307.31
2023-04-18T13:04:36.809Z,102298.97
2023-04-18T13:07:23.357Z,102289.03
2023-04-18T13:10:13.332Z,102290.53
2023-04-18T13:13:00.003Z,102293.00
2023-04-18T13:15:46.823Z,102290.38
2023-04-18T13:18:33.548Z,102289.28
2023-04-18T13:21:20.260Z,102286.91
2023-04-18T13:24:07.516Z,102281.75
2023-04-18T13:26:56.547Z,102281.69
2023-04-18T13:29:44.223Z,102285.56
2023-04-18T13:32:30.642Z,102277.78
2023-04-18T13:35:17.307Z,102273.69
2023-04-18T13:38:04.205Z,102278.69
2023-04-18T13:40:58.245Z,102276.44
2023-04-18T13:43:52.673Z,102263.81
2023-04-18T13:46:39.480Z,102262.88
2023-04-18T13:49:26.271Z,102265.47
2023-04-18T13:52:13.099Z,102259.81
2023-04-18T13:54:59.946Z,102261.25
2023-04-18T13:57:46.977Z,102273.28
2023-04-18T14:00:35.163Z,102271.84
2023-04-18T14:03:21.789Z,102266.34
2023-04-18T14:06:08.611Z,102260.59
2023-04-18T14:08:55.311Z,102233.88
2023-04-18T14:11:41.899Z,102267.75
2023-04-18T14:14:28.818Z,102267.41
2023-04-18T14:17:16.980Z,102270.69
2023-04-18T14:20:05.098Z,102272.66
2023-04-18T14:22:53.411Z,102275.50
2023-04-18T14:25:39.943Z,102268.28
2023-04-18T14:28:27.649Z,102274.41
2023-04-18T14:31:14.648Z,102273.75
2023-04-18T14:34:02.736Z,102271.44
2023-04-18T14:36:49.242Z,102273.69
2023-04-18T14:39:35.968Z,102269.72
2023-04-18T14:42:22.989Z,102268.22
2023-04-18T14:45:11.381Z,102262.00
2023-04-18T14:47:59.210Z,102260.88
2023-04-18T14:50:47.311Z,102252.50
2023-04-18T14:53:34.531Z,102255.53
2023-04-18T14:56:23.657Z,102258.69
2023-04-18T14:59:10.272Z,102253.25
2023-04-18T15:01:57.054Z,102250.53
2023-04-18T15:04:43.929Z,102255.19
2023-04-18T15:07:31.904Z,102250.69
2023-04-18T15:10:18.897Z,102242.38
2023-04-18T15:13:05.725Z,102252.84
2023-04-18T15:15:53.106Z,102251.47
2023-04-18T15:18:39.899Z,102262.81
2023-04-18T15:21:27.324Z,102258.31
2023-04-18T15:24:15.734Z,102260.13
2023-04-18T15:27:02.637Z,102251.97
2023-04-18T15:29:49.397Z,102259.53
2023-04-18T15:32:37.005Z,102257.44
2023-04-18T15:35:23.474Z,102261.34
2023-04-18T15:38:10.816Z,102262.06
2023-04-18T15:40:59.216Z,102261.69
2023-04-18T15:43:46.025Z,102261.81
2023-04-18T15:46:32.865Z,102269.78
2023-04-18T15:49:19.746Z,102266.94
2023-04-18T15:52:07.442Z,102264.34
2023-04-18T15:54:54.895Z,102266.69
2023-04-18T15:57:42.839Z,102267.94
2023-04-18T16:00:29.460Z,102263.03
2023-04-18T16:03:16.480Z,102266.03
2023-04-18T16:06:04.662Z,102263.91
2023-04-18T16:08:51.509Z,102263.97
2023-04-18T16:11:38.350Z,102265.09
2023-04-18T16:14:26.652Z,102266.59
2023-04-18T16:17:13.485Z,102265.81
2023-04-18T16:20:00.482Z,102275.00
2023-04-18T16:22:48.193Z,102273.94
2023-04-18T16:25:35.038Z,102271.84
2023-04-18T16:28:21.980Z,102277.63
2023-04-18T16:31:10.247Z,102275.66
2023-04-18T16:33:57.193Z,102271.66
2023-04-18T16:36:44.088Z,102276.44
2023-04-18T16:39:31.345Z,102269.69
2023-04-18T16:42:18.184Z,102282.47
2023-04-18T16:45:05.678Z,102244.22
2023-04-18T16:47:53.591Z,102282.09
2023-04-18T16:50:40.395Z,102286.22
2023-04-18T16:53:27.095Z,102288.09
2023-04-18T16:56:13.925Z,102295.22
2023-04-18T16:59:00.630Z,102285.00
2023-04-18T17:01:47.491Z,102291.44
2023-04-18T17:04:35.700Z,102284.41
2023-04-18T17:07:22.563Z,102292.44
2023-04-18T17:10:10.669Z,102293.88
2023-04-18T17:12:57.265Z,102295.94
2023-04-18T17:15:44.234Z,102295.75
2023-04-18T17:18:30.928Z,102304.31
2023-04-18T17:21:19.197Z,102302.66
2023-04-18T17:24:07.169Z,102299.91
2023-04-18T17:26:53.987Z,102305.91
2023-04-18T17:29:41.011Z,102298.97
2023-04-18T17:32:27.529Z,102300.00
2023-04-18T17:35:15.297Z,102305.00
2023-04-18T17:38:03.425Z,102319.53
2023-04-18T17:40:50.237Z,102314.66
2023-04-18T17:43:37.507Z,102315.88
2023-04-18T17:46:24.072Z,102309.53
2023-04-18T17:49:11.396Z,102317.75
2023-04-18T17:51:58.254Z,102312.56
2023-04-18T17:54:46.421Z,102316.25
2023-04-18T17:57:33.688Z,102320.13
2023-04-18T18:00:20.536Z,102318.56
2023-04-18T18:03:09.375Z,102329.50
2023-04-18T18:05:56.004Z,102324.41
2023-04-18T18:08:44.541Z,102328.00
2023-04-18T18:11:32.567Z,102325.59
2023-04-18T18:14:20.216Z,102330.09
2023-04-18T18:17:06.725Z,102337.06
2023-04-18T18:19:53.540Z,102343.75
2023-04-18T18:22:40.690Z,102336.00
2023-04-18T18:25:28.651Z,102339.03
2023-04-18T18:28:16.923Z,102350.53
2023-04-18T18:31:03.618Z,102346.88
2023-04-18T18:33:50.443Z,102349.31
2023-04-18T18:36:37.841Z,102346.78
2023-04-18T18:39:25.153Z,102353.19
2023-04-18T18:42:11.938Z,102353.38
2023-04-18T18:45:02.514Z,102367.00
2023-04-18T18:47:51.198Z,102369.94
2023-04-18T18:50:39.315Z,102366.97
2023-04-18T18:53:27.183Z,102371.38
2023-04-18T18:56:15.257Z,102368.91
2023-04-18T18:59:02.722Z,102368.13
2023-04-18T19:01:52.268Z,102375.38
2023-04-18T19:04:39.116Z,102377.03
2023-04-18T19:07:25.915Z,102379.78
2023-04-18T19:10:12.603Z,102380.69
2023-04-18T19:13:00.332Z,102388.72
2023-04-18T19:15:46.954Z,102381.72
2023-04-18T19:18:37.218Z,102389.72
2023-04-18T19:21:23.881Z,102391.44
2023-04-18T19:24:11.870Z,102381.72
2023-04-18T19:26:59.778Z,102380.16
2023-04-18T19:29:46.426Z,102382.88
2023-04-18T19:32:33.649Z,102379.66
2023-04-18T19:35:21.950Z,102376.00
2023-04-18T19:38:08.547Z,102372.41
2023-04-18T19:40:55.237Z,102371.63
2023-04-18T19:43:42.634Z,102366.53
2023-04-18T19:46:29.218Z,102373.63
2023-04-18T19:49:16.276Z,102367.44
2023-04-18T19:52:04.717Z,102360.41
2023-04-18T19:54:53.157Z,102360.50
2023-04-18T19:57:41.351Z,102363.16
2023-04-18T20:00:28.263Z,102362.19
2023-04-18T20:03:16.353Z,102364.94
2023-04-18T20:06:05.538Z,102367.66
2023-04-18T20:08:54.261Z,102359.72
2023-04-18T20:11:40.966Z,102363.50
2023-04-18T20:14:28.388Z,102359.88
2023-04-18T20:17:18.611Z,102367.00
2023-04-18T20:20:08.974Z,102367.03
2023-04-18T20:22:55.601Z,102367.97
2023-04-18T20:25:44.101Z,102361.84
2023-04-18T20:28:31.384Z,102376.00
2023-04-18T20:31:19.108Z,102366.22
2023-04-18T20:34:06.719Z,102363.56
2023-04-18T20:36:53.233Z,102371.56
2023-04-18T20:39:40.005Z,102364.56
2023-04-18T20:42:28.442Z,102361.91
2023-04-18T20:45:15.152Z,102364.63
2023-04-18T20:48:02.404Z,102360.19
2023-04-18T20:50:51.974Z,102364.63
2023-04-18T20:53:38.576Z,102367.31
2023-04-18T20:56:25.578Z,102369.00
2023-04-18T20:59:13.899Z,102359.34
2023-04-18T21:02:00.970Z,102358.47
2023-04-18T21:04:47.803Z,102361.97
2023-04-18T21:07:34.327Z,102366.44
2023-04-18T21:10:21.283Z,102362.94
2023-04-18T21:13:09.341Z,102369.03
2023-04-18T21:15:57.414Z,102374.38
2023-04-18T21:18:44.354Z,102373.53
2023-04-18T21:21:31.669Z,102366.47
2023-04-18T21:24:18.571Z,102363.81
2023-04-18T21:27:05.467Z,102372.63
2023-04-18T21:29:52.226Z,102363.81
2023-04-18T21:32:40.432Z,102370.00
2023-04-18T21:35:29.728Z,102365.59
2023-04-18T21:38:16.310Z,102370.00
2023-04-18T21:41:09.442Z,102366.47
2023-04-18T21:43:59.459Z,102362.94
2023-04-18T21:46:48.043Z,102362.94
2023-04-18T21:49:36.166Z,102370.00
2023-04-18T21:52:22.986Z,102365.59
2023-04-18T21:55:10.573Z,102365.59
2023-04-18T21:57:57.067Z,102365.59
2023-04-18T22:00:43.844Z,102364.72
2023-04-18T22:03:31.639Z,102363.81
2023-04-18T22:06:23.588Z,102362.94
2023-04-18T22:09:13.674Z,102364.69
2023-04-18T22:12:00.391Z,102358.53
2023-04-18T22:14:48.645Z,102358.53
2023-04-18T22:17:38.737Z,102357.66
2023-04-18T22:20:26.983Z,102348.84
2023-04-18T22:23:16.336Z,102346.19
2023-04-18T22:26:02.790Z,102344.44
2023-04-18T22:28:49.579Z,102340.03
2023-04-18T22:31:36.584Z,102337.41
2023-04-18T22:34:23.172Z,102332.13
2023-04-18T22:37:09.840Z,102333.88
2023-04-18T22:40:01.976Z,102332.09
2023-04-18T22:42:51.969Z,102324.19
2023-04-18T22:45:38.707Z,102326.84
2023-04-18T22:48:25.536Z,102335.63
2023-04-18T22:51:14.955Z,102334.75
2023-04-18T22:54:01.751Z,102329.47
2023-04-18T22:56:51.739Z,102324.19
2023-04-18T22:59:38.390Z,102272.25
2023-04-18T23:02:25.554Z,102328.59
2023-04-18T23:05:12.292Z,102333.00
2023-04-18T23:08:00.389Z,102325.06
2023-04-18T23:10:47.258Z,102327.72
2023-04-18T23:13:35.490Z,102330.34
2023-04-18T23:16:23.122Z,102322.44
2023-04-18T23:19:10.003Z,102325.94
2023-04-18T23:21:56.792Z,102332.13
2023-04-18T23:24:43.695Z,102333.88
2023-04-18T23:27:31.754Z,102322.41
2023-04-18T23:30:21.591Z,102325.06
2023-04-18T23:33:10.463Z,102325.94
2023-04-18T23:35:58.742Z,102329.47
2023-04-18T23:38:47.609Z,102322.41
2023-04-18T23:41:34.319Z,102329.47
2023-04-18T23:44:22.869Z,102324.22
2023-04-18T23:47:13.276Z,102327.66
2023-04-18T23:50:01.739Z,102333.78
2023-04-18T23:52:50.150Z,102333.78
2023-04-18T23:55:37.028Z,102322.44
2023-04-18T23:58:27.053Z,102339.06
